sensor_id;sensor_type;location;lat;lon;timestamp;pressure;altitude;pressure_sealevel;temperature;humidity
55068;BME280;40965;52.368;9.712;2023-01-26T00:01:14;101799.81;;;-3.05;100.00
55068;BME280;40965;52.368;9.712;2023-01-26T00:03:48;101789.09;;;-3.00;100.00
55068;BME280;40965;52.368;9.712;2023-01-26T00:06:17;101787.59;;;-2.96;100.00
55068;BME280;40965;52.368;9.712;2023-01-26T00:08:48;101788.69;;;-2.92;100.00
55068;BME280;40965;52.368;9.712;2023-01-26T00:11:18;101785.34;;;-2.91;100.00
55068;BME280;40965;52.368;9.712;2023-01-26T00:13:49;101784.56;;;-2.90;100.00
55068;BME280;40965;52.368;9.712;2023-01-26T00:16:16;101792.03;;;-2.93;100.00
55068;BME280;40965;52.368;9.712;2023-01-26T00:18:42;101787.81;;;-2.93;100.00
55068;BME280;40965;52.368;9.712;2023-01-26T00:21:18;101776.97;;;-2.89;100.00
55068;BME280;40965;52.368;9.712;2023-01-26T00:23:46;101769.44;;;-2.86;100.00
55068;BME280;40965;52.368;9.712;2023-01-26T00:26:16;101760.72;;;-2.89;100.00
55068;BME280;40965;52.368;9.712;2023-01-26T00:28:44;101754.59;;;-2.91;100.00
55068;BME280;40965;52.368;9.712;2023-01-26T00:31:16;101758.94;;;-2.90;100.00
55068;BME280;40965;52.368;9.712;2023-01-26T00:33:45;101751.63;;;-2.84;100.00
55068;BME280;40965;52.368;9.712;2023-01-26T00:36:12;101752.69;;;-2.80;100.00
55068;BME280;40965;52.368;9.712;2023-01-26T00:38:40;101751.81;;;-2.81;100.00
55068;BME280;40965;52.368;9.712;2023-01-26T00:41:06;101745.41;;;-2.74;100.00
55068;BME280;40965;52.368;9.712;2023-01-26T00:43:33;101742.22;;;-2.70;100.00
55068;BME280;40965;52.368;9.712;2023-01-26T00:46:00;101741.53;;;-2.68;100.00
55068;BME280;40965;52.368;9.712;2023-01-26T00:48:27;101737.00;;;-2.72;100.00
55068;BME280;40965;52.368;9.712;2023-01-26T00:50:53;101734.06;;;-2.78;100.00
55068;BME280;40965;52.368;9.712;2023-01-26T00:53:20;101736.06;;;-2.87;100.00
55068;BME280;40965;52.368;9.712;2023-01-26T00:55:46;101730.13;;;-2.86;100.00
55068;BME280;40965;52.368;9.712;2023-01-26T00:58:13;101733.78;;;-2.83;100.00
55068;BME280;40965;52.368;9.712;2023-01-26T01:00:39;101732.31;;;-2.79;100.00
55068;BME280;40965;52.368;9.712;2023-01-26T01:03:06;101722.84;;;-2.80;100.00
55068;BME280;40965;52.368;9.712;2023-01-26T01:05:33;101729.84;;;-2.77;100.00
55068;BME280;40965;52.368;9.712;2023-01-26T01:08:00;101728.75;;;-2.81;100.00
55068;BME280;40965;52.368;9.712;2023-01-26T01:10:27;101725.31;;;-2.81;100.00
55068;BME280;40965;52.368;9.712;2023-01-26T01:12:54;101719.19;;;-2.84;100.00
55068;BME280;40965;52.368;9.712;2023-01-26T01:15:21;101726.09;;;-2.83;100.00
55068;BME280;40965;52.368;9.712;2023-01-26T01:17:47;101715.47;;;-2.89;100.00
55068;BME280;40965;52.368;9.712;2023-01-26T01:20:14;101712.13;;;-2.88;100.00
55068;BME280;40965;52.368;9.712;2023-01-26T01:22:41;101713.00;;;-2.87;100.00
55068;BME280;40965;52.368;9.712;2023-01-26T01:25:07;101717.16;;;-2.89;100.00
55068;BME280;40965;52.368;9.712;2023-01-26T01:27:34;101718.81;;;-2.90;100.00
55068;BME280;40965;52.368;9.712;2023-01-26T01:30:00;101720.97;;;-2.83;100.00
55068;BME280;40965;52.368;9.712;2023-01-26T01:32:33;101712.69;;;-2.78;100.00
55068;BME280;40965;52.368;9.712;2023-01-26T01:35:01;101704.91;;;-2.80;100.00
55068;BME280;40965;52.368;9.712;2023-01-26T01:37:28;101707.38;;;-2.81;100.00
55068;BME280;40965;52.368;9.712;2023-01-26T01:39:57;101708.66;;;-2.75;100.00
55068;BME280;40965;52.368;9.712;2023-01-26T01:42:24;101704.78;;;-2.68;100.00
55068;BME280;40965;52.368;9.712;2023-01-26T01:47:58;101696.16;;;-2.55;100.00
55068;BME280;40965;52.368;9.712;2023-01-26T01:50:30;101696.94;;;-2.56;100.00
55068;BME280;40965;52.368;9.712;2023-01-26T01:53:00;101693.59;;;-2.55;100.00
55068;BME280;40965;52.368;9.712;2023-01-26T01:55:27;101688.56;;;-2.54;100.00
55068;BME280;40965;52.368;9.712;2023-01-26T01:57:57;101684.22;;;-2.55;100.00
55068;BME280;40965;52.368;9.712;2023-01-26T02:00:25;101679.09;;;-2.55;100.00
55068;BME280;40965;52.368;9.712;2023-01-26T02:03:02;101672.47;;;-2.51;100.00
55068;BME280;40965;52.368;9.712;2023-01-26T02:05:53;101674.34;;;-2.48;100.00
55068;BME280;40965;52.368;9.712;2023-01-26T02:08:26;101678.56;;;-2.49;100.00
55068;BME280;40965;52.368;9.712;2023-01-26T02:10:58;101675.31;;;-2.46;100.00
55068;BME280;40965;52.368;9.712;2023-01-26T02:13:30;101677.09;;;-2.45;100.00
55068;BME280;40965;52.368;9.712;2023-01-26T02:15:58;101671.09;;;-2.46;100.00
55068;BME280;40965;52.368;9.712;2023-01-26T02:18:26;101669.22;;;-2.48;100.00
55068;BME280;40965;52.368;9.712;2023-01-26T02:20:58;101664.25;;;-2.45;100.00
55068;BME280;40965;52.368;9.712;2023-01-26T02:26:28;101664.34;;;-2.44;100.00
55068;BME280;40965;52.368;9.712;2023-01-26T02:29:00;101652.44;;;-2.43;100.00
55068;BME280;40965;52.368;9.712;2023-01-26T02:31:29;101652.44;;;-2.43;100.00
55068;BME280;40965;52.368;9.712;2023-01-26T02:33:56;101655.16;;;-2.40;100.00
55068;BME280;40965;52.368;9.712;2023-01-26T02:36:25;101658.63;;;-2.40;100.00
55068;BME280;40965;52.368;9.712;2023-01-26T02:39:14;101649.34;;;-2.38;100.00
55068;BME280;40965;52.368;9.712;2023-01-26T02:41:49;101647.06;;;-2.33;100.00
55068;BME280;40965;52.368;9.712;2023-01-26T02:44:34;101653.84;;;-2.34;100.00
55068;BME280;40965;52.368;9.712;2023-01-26T02:47:13;101652.19;;;-2.33;100.00
55068;BME280;40965;52.368;9.712;2023-01-26T02:49:41;101652.38;;;-2.30;100.00
55068;BME280;40965;52.368;9.712;2023-01-26T02:52:18;101656.88;;;-2.26;100.00
55068;BME280;40965;52.368;9.712;2023-01-26T02:54:46;101654.22;;;-2.27;100.00
55068;BME280;40965;52.368;9.712;2023-01-26T02:57:31;101652.53;;;-2.27;100.00
55068;BME280;40965;52.368;9.712;2023-01-26T02:59:59;101651.13;;;-2.22;100.00
55068;BME280;40965;52.368;9.712;2023-01-26T03:02:26;101646.63;;;-2.26;100.00
55068;BME280;40965;52.368;9.712;2023-01-26T03:04:52;101650.09;;;-2.25;100.00
55068;BME280;40965;52.368;9.712;2023-01-26T03:07:19;101652.75;;;-2.24;100.00
55068;BME280;40965;52.368;9.712;2023-01-26T03:09:45;101651.13;;;-2.22;100.00
55068;BME280;40965;52.368;9.712;2023-01-26T03:12:12;101659.03;;;-2.19;100.00
55068;BME280;40965;52.368;9.712;2023-01-26T03:14:38;101654.78;;;-2.18;100.00
55068;BME280;40965;52.368;9.712;2023-01-26T03:17:05;101653.97;;;-2.17;100.00
55068;BME280;40965;52.368;9.712;2023-01-26T03:19:32;101650.34;;;-2.21;100.00
55068;BME280;40965;52.368;9.712;2023-01-26T03:22:30;101655.31;;;-2.24;100.00
55068;BME280;40965;52.368;9.712;2023-01-26T03:25:14;101651.13;;;-2.22;100.00
55068;BME280;40965;52.368;9.712;2023-01-26T03:27:58;101645.81;;;-2.25;100.00
55068;BME280;40965;52.368;9.712;2023-01-26T03:30:25;101649.28;;;-2.24;100.00
55068;BME280;40965;52.368;9.712;2023-01-26T03:32:52;101646.63;;;-2.26;100.00
55068;BME280;40965;52.368;9.712;2023-01-26T03:35:18;101639.28;;;-2.35;100.00
55068;BME280;40965;52.368;9.712;2023-01-26T03:37:46;101643.50;;;-2.35;100.00
55068;BME280;40965;52.368;9.712;2023-01-26T03:40:18;101638.59;;;-2.32;100.00
55068;BME280;40965;52.368;9.712;2023-01-26T03:43:06;101639.53;;;-2.30;100.00
55068;BME280;40965;52.368;9.712;2023-01-26T03:45:51;101637.16;;;-2.27;100.00
55068;BME280;40965;52.368;9.712;2023-01-26T03:48:35;101635.41;;;-2.28;100.00
55068;BME280;40965;52.368;9.712;2023-01-26T03:51:19;101630.91;;;-2.32;100.00
55068;BME280;40965;52.368;9.712;2023-01-26T03:54:03;101631.47;;;-2.36;100.00
55068;BME280;40965;52.368;9.712;2023-01-26T03:56:47;101628.31;;;-2.32;100.00
55068;BME280;40965;52.368;9.712;2023-01-26T03:59:14;101629.28;;;-2.30;100.00
55068;BME280;40965;52.368;9.712;2023-01-26T04:01:44;101623.91;;;-2.35;100.00
55068;BME280;40965;52.368;9.712;2023-01-26T04:04:28;101627.41;;;-2.33;100.00
55068;BME280;40965;52.368;9.712;2023-01-26T04:07:12;101627.50;;;-2.31;100.00
55068;BME280;40965;52.368;9.712;2023-01-26T04:09:56;101628.50;;;-2.29;100.00
55068;BME280;40965;52.368;9.712;2023-01-26T04:12:24;101622.59;;;-2.28;100.00
55068;BME280;40965;52.368;9.712;2023-01-26T04:14:51;101617.63;;;-2.25;100.00
55068;BME280;40965;52.368;9.712;2023-01-26T04:17:35;101621.97;;;-2.24;100.00
55068;BME280;40965;52.368;9.712;2023-01-26T04:20:19;101623.63;;;-2.24;100.00
55068;BME280;40965;52.368;9.712;2023-01-26T04:23:03;101620.19;;;-2.25;100.00
55068;BME280;40965;52.368;9.712;2023-01-26T04:25:29;101611.78;;;-2.22;100.00
55068;BME280;40965;52.368;9.712;2023-01-26T04:27:56;101603.22;;;-2.23;100.00
55068;BME280;40965;52.368;9.712;2023-01-26T04:30:22;101610.91;;;-2.23;100.00
55068;BME280;40965;52.368;9.712;2023-01-26T04:32:49;101604.09;;;-2.22;100.00
55068;BME280;40965;52.368;9.712;2023-01-26T04:35:16;101605.16;;;-2.19;100.00
55068;BME280;40965;52.368;9.712;2023-01-26T04:37:43;101600.09;;;-2.17;100.00
55068;BME280;40965;52.368;9.712;2023-01-26T04:40:10;101588.88;;;-2.19;100.00
55068;BME280;40965;52.368;9.712;2023-01-26T04:42:36;101600.81;;;-2.20;100.00
55068;BME280;40965;52.368;9.712;2023-01-26T04:45:03;101600.66;;;-2.23;100.00
55068;BME280;40965;52.368;9.712;2023-01-26T04:47:30;101598.34;;;-2.18;100.00
55068;BME280;40965;52.368;9.712;2023-01-26T04:49:56;101600.66;;;-2.23;100.00
55068;BME280;40965;52.368;9.712;2023-01-26T04:52:23;101598.16;;;-2.21;100.00
55068;BME280;40965;52.368;9.712;2023-01-26T04:54:53;101592.06;;;-2.23;100.00
55068;BME280;40965;52.368;9.712;2023-01-26T04:57:19;101603.28;;;-2.21;100.00
55068;BME280;40965;52.368;9.712;2023-01-26T04:59:47;101607.63;;;-2.20;100.00
55068;BME280;40965;52.368;9.712;2023-01-26T05:02:14;101606.13;;;-2.17;100.00
55068;BME280;40965;52.368;9.712;2023-01-26T05:04:41;101593.41;;;-2.15;100.00
55068;BME280;40965;52.368;9.712;2023-01-26T05:07:07;101602.75;;;-2.16;100.00
55068;BME280;40965;52.368;9.712;2023-01-26T05:09:35;101592.34;;;-2.19;100.00
55068;BME280;40965;52.368;9.712;2023-01-26T05:12:02;101590.63;;;-2.18;100.00
55068;BME280;40965;52.368;9.712;2023-01-26T05:14:42;101585.50;;;-2.18;100.00
55068;BME280;40965;52.368;9.712;2023-01-26T05:17:09;101586.91;;;-2.23;100.00
55068;BME280;40965;52.368;9.712;2023-01-26T05:19:35;101582.00;;;-2.20;100.00
55068;BME280;40965;52.368;9.712;2023-01-26T05:22:02;101592.34;;;-2.19;100.00
55068;BME280;40965;52.368;9.712;2023-01-26T05:24:28;101591.53;;;-2.18;100.00
55068;BME280;40965;52.368;9.712;2023-01-26T05:26:55;101595.16;;;-2.14;100.00
55068;BME280;40965;52.368;9.712;2023-01-26T05:29:35;101587.44;;;-2.14;100.00
55068;BME280;40965;52.368;9.712;2023-01-26T05:32:02;101593.28;;;-2.17;100.00
55068;BME280;40965;52.368;9.712;2023-01-26T05:34:28;101592.50;;;-2.16;100.00
55068;BME280;40965;52.368;9.712;2023-01-26T05:36:56;101590.72;;;-2.17;100.00
55068;BME280;40965;52.368;9.712;2023-01-26T05:39:22;101590.72;;;-2.17;100.00
55068;BME280;40965;52.368;9.712;2023-01-26T05:41:48;101592.50;;;-2.16;100.00
55068;BME280;40965;52.368;9.712;2023-01-26T05:44:15;101591.63;;;-2.16;100.00
55068;BME280;40965;52.368;9.712;2023-01-26T05:46:41;101595.06;;;-2.16;100.00
55068;BME280;40965;52.368;9.712;2023-01-26T05:49:09;101596.91;;;-2.13;100.00
55068;BME280;40965;52.368;9.712;2023-01-26T05:51:36;101596.06;;;-2.13;100.00
55068;BME280;40965;52.368;9.712;2023-01-26T05:54:03;101596.84;;;-2.14;100.00
55068;BME280;40965;52.368;9.712;2023-01-26T05:56:30;101604.63;;;-2.13;100.00
55068;BME280;40965;52.368;9.712;2023-01-26T05:58:58;101604.63;;;-2.13;100.00
55068;BME280;40965;52.368;9.712;2023-01-26T06:01:24;101607.19;;;-2.13;100.00
55068;BME280;40965;52.368;9.712;2023-01-26T06:03:53;101606.13;;;-2.17;100.00
55068;BME280;40965;52.368;9.712;2023-01-26T06:06:19;101601.69;;;-2.19;100.00
55068;BME280;40965;52.368;9.712;2023-01-26T06:08:46;101597.47;;;-2.19;100.00
55068;BME280;40965;52.368;9.712;2023-01-26T06:11:13;101600.03;;;-2.19;100.00
55068;BME280;40965;52.368;9.712;2023-01-26T06:13:39;101599.94;;;-2.20;100.00
55068;BME280;40965;52.368;9.712;2023-01-26T06:16:06;101595.59;;;-2.21;100.00
55068;BME280;40965;52.368;9.712;2023-01-26T06:18:32;101598.25;;;-2.20;100.00
55068;BME280;40965;52.368;9.712;2023-01-26T06:20:59;101597.25;;;-2.22;100.00
55068;BME280;40965;52.368;9.712;2023-01-26T06:23:26;101601.59;;;-2.21;100.00
55068;BME280;40965;52.368;9.712;2023-01-26T06:26:00;101598.25;;;-2.20;100.00
55068;BME280;40965;52.368;9.712;2023-01-26T06:28:27;101601.81;;;-2.18;100.00
55068;BME280;40965;52.368;9.712;2023-01-26T06:30:59;101598.53;;;-2.15;100.00
55068;BME280;40965;52.368;9.712;2023-01-26T06:33:35;101597.91;;;-2.11;100.00
55068;BME280;40965;52.368;9.712;2023-01-26T06:36:04;101602.13;;;-2.11;100.00
55068;BME280;40965;52.368;9.712;2023-01-26T06:38:33;101604.91;;;-2.08;100.00
55068;BME280;40965;52.368;9.712;2023-01-26T06:41:00;101609.31;;;-2.06;100.00
55068;BME280;40965;52.368;9.712;2023-01-26T06:43:32;101607.72;;;-2.04;100.00
55068;BME280;40965;52.368;9.712;2023-01-26T06:46:00;101605.94;;;-2.05;100.00
55068;BME280;40965;52.368;9.712;2023-01-26T06:48:29;101604.44;;;-2.01;100.00
55068;BME280;40965;52.368;9.712;2023-01-26T06:53:42;101605.78;;;-1.93;100.00
55068;BME280;40965;52.368;9.712;2023-01-26T06:56:12;101603.22;;;-1.93;100.00
55068;BME280;40965;52.368;9.712;2023-01-26T06:58:39;101606.09;;;-1.87;100.00
55068;BME280;40965;52.368;9.712;2023-01-26T07:01:05;101601.88;;;-1.86;100.00
55068;BME280;40965;52.368;9.712;2023-01-26T07:03:33;101607.19;;;-1.83;100.00
55068;BME280;40965;52.368;9.712;2023-01-26T07:05:59;101609.03;;;-1.80;100.00
55068;BME280;40965;52.368;9.712;2023-01-26T07:08:27;101611.53;;;-1.82;100.00
55068;BME280;40965;52.368;9.712;2023-01-26T07:10:54;101618.06;;;-1.87;100.00
55068;BME280;40965;52.368;9.712;2023-01-26T07:13:20;101615.50;;;-1.87;100.00
55068;BME280;40965;52.368;9.712;2023-01-26T07:15:46;101618.00;;;-1.89;100.00
55068;BME280;40965;52.368;9.712;2023-01-26T07:18:14;101618.69;;;-1.91;100.00
55068;BME280;40965;52.368;9.712;2023-01-26T07:20:42;101613.72;;;-1.88;100.00
55068;BME280;40965;52.368;9.712;2023-01-26T07:23:08;101613.09;;;-1.84;100.00
55068;BME280;40965;52.368;9.712;2023-01-26T07:25:35;101609.66;;;-1.85;100.00
55068;BME280;40965;52.368;9.712;2023-01-26T07:28:03;101620.00;;;-1.83;100.00
55068;BME280;40965;52.368;9.712;2023-01-26T07:30:34;101617.72;;;-1.78;100.00
55068;BME280;40965;52.368;9.712;2023-01-26T07:33:01;101617.00;;;-1.76;100.00
55068;BME280;40965;52.368;9.712;2023-01-26T07:35:29;101617.81;;;-1.77;100.00
55068;BME280;40965;52.368;9.712;2023-01-26T07:37:56;101618.59;;;-1.78;100.00
55068;BME280;40965;52.368;9.712;2023-01-26T07:40:24;101610.97;;;-1.76;100.00
55068;BME280;40965;52.368;9.712;2023-01-26T07:42:50;101610.97;;;-1.76;100.00
55068;BME280;40965;52.368;9.712;2023-01-26T07:45:17;101615.03;;;-1.80;100.00
55068;BME280;40965;52.368;9.712;2023-01-26T07:47:44;101619.47;;;-1.77;100.00
55068;BME280;40965;52.368;9.712;2023-01-26T07:50:11;101623.81;;;-1.76;100.00
55068;BME280;40965;52.368;9.712;2023-01-26T07:52:38;101615.31;;;-1.75;100.00
55068;BME280;40965;52.368;9.712;2023-01-26T07:55:05;101619.03;;;-1.70;100.00
55068;BME280;40965;52.368;9.712;2023-01-26T07:57:32;101620.88;;;-1.68;100.00
55068;BME280;40965;52.368;9.712;2023-01-26T07:59:59;101616.03;;;-1.63;100.00
55068;BME280;40965;52.368;9.712;2023-01-26T08:02:25;101620.41;;;-1.60;100.00
55068;BME280;40965;52.368;9.712;2023-01-26T08:04:52;101613.53;;;-1.61;100.00
55068;BME280;40965;52.368;9.712;2023-01-26T08:07:19;101616.03;;;-1.63;100.00
55068;BME280;40965;52.368;9.712;2023-01-26T08:09:45;101620.41;;;-1.60;100.00
55068;BME280;40965;52.368;9.712;2023-01-26T08:12:12;101618.75;;;-1.60;100.00
55068;BME280;40965;52.368;9.712;2023-01-26T08:14:38;101618.28;;;-1.53;100.00
55068;BME280;40965;52.368;9.712;2023-01-26T08:17:06;101620.03;;;-1.52;100.00
55068;BME280;40965;52.368;9.712;2023-01-26T08:19:32;101623.41;;;-1.53;100.00
55068;BME280;40965;52.368;9.712;2023-01-26T08:21:59;101634.94;;;-1.46;100.00
55068;BME280;40965;52.368;9.712;2023-01-26T08:24:25;101633.16;;;-1.47;100.00
55068;BME280;40965;52.368;9.712;2023-01-26T08:26:52;101631.72;;;-1.42;100.00
55068;BME280;40965;52.368;9.712;2023-01-26T08:29:19;101638.53;;;-1.42;100.00
55068;BME280;40965;52.368;9.712;2023-01-26T08:31:46;101638.38;;;-1.45;100.00
55068;BME280;40965;52.368;9.712;2023-01-26T08:34:13;101630.66;;;-1.45;100.00
55068;BME280;40965;52.368;9.712;2023-01-26T08:36:39;101632.19;;;-1.49;100.00
55068;BME280;40965;52.368;9.712;2023-01-26T08:39:06;101637.31;;;-1.49;100.00
55068;BME280;40965;52.368;9.712;2023-01-26T08:41:33;101638.31;;;-1.47;100.00
55068;BME280;40965;52.368;9.712;2023-01-26T08:44:01;101639.25;;;-1.45;100.00
55068;BME280;40965;52.368;9.712;2023-01-26T08:46:28;101629.97;;;-1.43;100.00
55068;BME280;40965;52.368;9.712;2023-01-26T08:48:54;101629.31;;;-1.39;100.00
55068;BME280;40965;52.368;9.712;2023-01-26T08:51:21;101632.88;;;-1.37;100.00
55068;BME280;40965;52.368;9.712;2023-01-26T08:53:47;101628.69;;;-1.35;100.00
55068;BME280;40965;52.368;9.712;2023-01-26T08:56:14;101635.69;;;-1.32;100.00
55068;BME280;40965;52.368;9.712;2023-01-26T08:58:41;101636.59;;;-1.31;100.00
55068;BME280;40965;52.368;9.712;2023-01-26T09:01:10;101645.16;;;-1.31;100.00
55068;BME280;40965;52.368;9.712;2023-01-26T09:03:38;101648.38;;;-1.35;100.00
55068;BME280;40965;52.368;9.712;2023-01-26T09:06:06;101643.31;;;-1.34;100.00
55068;BME280;40965;52.368;9.712;2023-01-26T09:08:33;101644.19;;;-1.33;100.00
55068;BME280;40965;52.368;9.712;2023-01-26T09:11:00;101635.53;;;-1.35;100.00
55068;BME280;40965;52.368;9.712;2023-01-26T09:13:27;101634.16;;;-1.28;100.00
55068;BME280;40965;52.368;9.712;2023-01-26T09:15:53;101631.69;;;-1.27;100.00
55068;BME280;40965;52.368;9.712;2023-01-26T09:18:22;101632.41;;;-1.29;100.00
55068;BME280;40965;52.368;9.712;2023-01-26T09:20:48;101635.75;;;-1.30;100.00
55068;BME280;40965;52.368;9.712;2023-01-26T09:23:16;101646.94;;;-1.30;100.00
55068;BME280;40965;52.368;9.712;2023-01-26T09:25:43;101641.81;;;-1.30;100.00
55068;BME280;40965;52.368;9.712;2023-01-26T09:28:09;101633.31;;;-1.29;100.00
55068;BME280;40965;52.368;9.712;2023-01-26T09:30:36;101636.19;;;-1.23;100.00
55068;BME280;40965;52.368;9.712;2023-01-26T09:33:03;101640.78;;;-1.17;100.00
55068;BME280;40965;52.368;9.712;2023-01-26T09:35:31;101644.22;;;-1.17;100.00
55068;BME280;40965;52.368;9.712;2023-01-26T09:37:58;101641.66;;;-1.17;100.00
55068;BME280;40965;52.368;9.712;2023-01-26T09:40:36;101641.22;;;-1.09;100.00
55068;BME280;40965;52.368;9.712;2023-01-26T09:43:23;101633.91;;;-1.02;100.00
55068;BME280;40965;52.368;9.712;2023-01-26T09:46:11;101636.81;;;-0.95;100.00
55068;BME280;40965;52.368;9.712;2023-01-26T09:49:14;101628.22;;;-0.96;100.00
55068;BME280;40965;52.368;9.712;2023-01-26T09:52:03;101633.09;;;-1.01;100.00
55068;BME280;40965;52.368;9.712;2023-01-26T09:54:40;101626.38;;;-0.98;100.00
55068;BME280;40965;52.368;9.712;2023-01-26T09:57:12;101621.22;;;-0.98;100.00
55068;BME280;40965;52.368;9.712;2023-01-26T09:59:47;101620.50;;;-0.96;100.00
55068;BME280;40965;52.368;9.712;2023-01-26T10:05:05;101630.72;;;-0.97;100.00
55068;BME280;40965;52.368;9.712;2023-01-26T10:07:38;101626.53;;;-0.95;100.00
55068;BME280;40965;52.368;9.712;2023-01-26T10:10:14;101626.63;;;-0.94;100.00
55068;BME280;40965;52.368;9.712;2023-01-26T10:12:51;101623.16;;;-0.94;100.00
55068;BME280;40965;52.368;9.712;2023-01-26T10:15:38;101623.16;;;-0.94;100.00
55068;BME280;40965;52.368;9.712;2023-01-26T10:18:18;101624.34;;;-0.88;100.00
55068;BME280;40965;52.368;9.712;2023-01-26T10:20:50;101625.75;;;-0.78;100.00
55068;BME280;40965;52.368;9.712;2023-01-26T10:23:27;101621.41;;;-0.79;100.00
55068;BME280;40965;52.368;9.712;2023-01-26T10:26:01;101619.81;;;-0.77;100.00
55068;BME280;40965;52.368;9.712;2023-01-26T10:28:48;101621.66;;;-0.74;100.00
55068;BME280;40965;52.368;9.712;2023-01-26T10:31:20;101609.59;;;-0.75;100.00
55068;BME280;40965;52.368;9.712;2023-01-26T10:34:12;101614.09;;;-0.71;100.00
55068;BME280;40965;52.368;9.712;2023-01-26T10:36:43;101606.59;;;-0.67;100.00
55068;BME280;40965;52.368;9.712;2023-01-26T10:39:13;101605.09;;;-0.63;100.00
55068;BME280;40965;52.368;9.712;2023-01-26T10:41:57;101600.41;;;-0.54;100.00
55068;BME280;40965;52.368;9.712;2023-01-26T10:44:37;101597.28;;;-0.48;100.00
55068;BME280;40965;52.368;9.712;2023-01-26T10:47:15;101586.56;;;-0.39;100.00
55068;BME280;40965;52.368;9.712;2023-01-26T10:49:44;101585.09;;;-0.34;100.00
55068;BME280;40965;52.368;9.712;2023-01-26T10:52:21;101576.84;;;-0.28;100.00
55068;BME280;40965;52.368;9.712;2023-01-26T10:55:19;101582.13;;;-0.25;100.00
55068;BME280;40965;52.368;9.712;2023-01-26T10:57:46;101577.72;;;-0.28;100.00
55068;BME280;40965;52.368;9.712;2023-01-26T11:00:25;101583.75;;;-0.27;100.00
55068;BME280;40965;52.368;9.712;2023-01-26T11:03:00;101580.44;;;-0.25;100.00
55068;BME280;40965;52.368;9.712;2023-01-26T11:05:32;101577.94;;;-0.23;100.00
55068;BME280;40965;52.368;9.712;2023-01-26T11:07:58;101578.03;;;-0.22;100.00
55068;BME280;40965;52.368;9.712;2023-01-26T11:10:36;101571.09;;;-0.23;100.00
55068;BME280;40965;52.368;9.712;2023-01-26T11:13:19;101572.56;;;-0.28;100.00
55068;BME280;40965;52.368;9.712;2023-01-26T11:15:48;101567.94;;;-0.35;100.00
55068;BME280;40965;52.368;9.712;2023-01-26T11:18:58;101570.31;;;-0.38;100.00
55068;BME280;40965;52.368;9.712;2023-01-26T11:21:39;101561.16;;;-0.33;100.00
55068;BME280;40965;52.368;9.712;2023-01-26T11:24:15;101565.94;;;-0.23;100.00
55068;BME280;40965;52.368;9.712;2023-01-26T11:29:49;101559.59;;;-0.13;100.00
55068;BME280;40965;52.368;9.712;2023-01-26T11:32:45;101555.63;;;-0.06;100.00
55068;BME280;40965;52.368;9.712;2023-01-26T11:35:36;101553.84;;;-0.07;100.00
55068;BME280;40965;52.368;9.712;2023-01-26T11:38:40;101563.34;;;-0.06;100.00
55068;BME280;40965;52.368;9.712;2023-01-26T11:44:14;101548.75;;;-0.06;100.00
55068;BME280;40965;52.368;9.712;2023-01-26T11:50:32;101536.81;;;-0.05;100.00
55068;BME280;40965;52.368;9.712;2023-01-26T11:53:19;101542.22;;;0.01;100.00
55068;BME280;40965;52.368;9.712;2023-01-26T11:56:24;101541.41;;;0.02;100.00
55068;BME280;40965;52.368;9.712;2023-01-26T11:59:03;101531.72;;;-0.04;100.00
55068;BME280;40965;52.368;9.712;2023-01-26T12:01:40;101533.25;;;-0.07;100.00
55068;BME280;40965;52.368;9.712;2023-01-26T12:04:17;101534.84;;;-0.09;100.00
55068;BME280;40965;52.368;9.712;2023-01-26T12:06:57;101535.69;;;-0.10;100.00
55068;BME280;40965;52.368;9.712;2023-01-26T12:09:46;101537.38;;;-0.11;100.00
55068;BME280;40965;52.368;9.712;2023-01-26T12:12:33;101538.09;;;-0.13;100.00
55068;BME280;40965;52.368;9.712;2023-01-26T12:15:19;101531.03;;;-0.18;100.00
55068;BME280;40965;52.368;9.712;2023-01-26T12:17:59;101522.44;;;-0.18;100.00
55068;BME280;40965;52.368;9.712;2023-01-26T12:20:49;101527.66;;;-0.17;100.00
55068;BME280;40965;52.368;9.712;2023-01-26T12:26:02;101522.34;;;-0.20;100.00
55068;BME280;40965;52.368;9.712;2023-01-26T12:28:37;101519.69;;;-0.21;100.00
55068;BME280;40965;52.368;9.712;2023-01-26T12:34:30;101521.91;;;-0.29;100.00
55068;BME280;40965;52.368;9.712;2023-01-26T12:37:04;101511.34;;;-0.35;100.00
55068;BME280;40965;52.368;9.712;2023-01-26T12:43:05;101505.88;;;-0.41;100.00
55068;BME280;40965;52.368;9.712;2023-01-26T12:45:47;101498.09;;;-0.43;100.00
55068;BME280;40965;52.368;9.712;2023-01-26T12:48:26;101501.53;;;-0.42;100.00
55068;BME280;40965;52.368;9.712;2023-01-26T12:51:05;101494.69;;;-0.42;100.00
55068;BME280;40965;52.368;9.712;2023-01-26T12:53:55;101493.09;;;-0.40;100.00
55068;BME280;40965;52.368;9.712;2023-01-26T12:56:38;101492.34;;;-0.37;100.00
55068;BME280;40965;52.368;9.712;2023-01-26T12:59:13;101492.59;;;-0.32;100.00
55068;BME280;40965;52.368;9.712;2023-01-26T13:01:42;101487.50;;;-0.31;100.00
55068;BME280;40965;52.368;9.712;2023-01-26T13:04:11;101489.19;;;-0.31;100.00
55068;BME280;40965;52.368;9.712;2023-01-26T13:06:40;101480.66;;;-0.30;100.00
55068;BME280;40965;52.368;9.712;2023-01-26T13:09:24;101484.94;;;-0.31;100.00
55068;BME280;40965;52.368;9.712;2023-01-26T13:11:56;101487.59;;;-0.29;100.00
55068;BME280;40965;52.368;9.712;2023-01-26T13:14:34;101482.69;;;-0.25;100.00
55068;BME280;40965;52.368;9.712;2023-01-26T13:19:53;101478.41;;;-0.24;100.00
55068;BME280;40965;52.368;9.712;2023-01-26T13:24:57;101476.63;;;-0.25;100.00
55068;BME280;40965;52.368;9.712;2023-01-26T13:27:28;101471.41;;;-0.27;100.00
55068;BME280;40965;52.368;9.712;2023-01-26T13:29:57;101475.09;;;-0.22;100.00
55068;BME280;40965;52.368;9.712;2023-01-26T13:34:54;101480.16;;;-0.23;100.00
55068;BME280;40965;52.368;9.712;2023-01-26T13:48:36;101476.69;;;-0.24;100.00
55068;BME280;40965;52.368;9.712;2023-01-26T13:51:33;101476.03;;;-0.20;100.00
55068;BME280;40965;52.368;9.712;2023-01-26T13:54:05;101476.13;;;-0.18;100.00